Time;durP1;ratioP1;P1;durP2;ratioP2;P2;SDS_P1;SDS_P2;PMS_P1;PMS_P2;Temp;Humidity;BMP_temperature;BMP_pressure;BME280_temperature;BME280_humidity;BME280_pressure;Samples;Min_cycle;Max_cycle;Signal;HPM_P1;HPM_P2
2022/07/24 00:00:56;;;;;;;12.18;9.68;;;31.20;56.40;;;;;;5053280;28;20017;-78
2022/07/24 00:03:22;;;;;;;12.20;10.20;;;31.20;56.50;;;;;;5054313;28;20391;-78
2022/07/24 00:05:48;;;;;;;13.10;10.95;;;31.10;56.90;;;;;;5054426;28;20490;-76
2022/07/24 00:08:13;;;;;;;12.82;10.68;;;30.90;57.30;;;;;;5054005;28;20579;-79
2022/07/24 00:10:39;;;;;;;11.40;10.20;;;30.90;58.60;;;;;;5054214;28;20415;-76
2022/07/24 00:13:05;;;;;;;12.43;10.95;;;30.80;58.30;;;;;;5054106;28;20423;-76
2022/07/24 00:15:30;;;;;;;12.27;11.00;;;30.60;58.70;;;;;;5054251;28;20053;-78
2022/07/24 00:17:56;;;;;;;14.50;11.57;;;30.40;59.30;;;;;;5054722;28;20044;-76
2022/07/24 00:20:22;;;;;;;13.75;11.27;;;30.50;59.60;;;;;;5054486;28;20098;-82
2022/07/24 00:22:48;;;;;;;13.18;10.98;;;30.30;59.90;;;;;;5053049;28;20052;-78
2022/07/24 00:25:14;;;;;;;14.40;11.48;;;30.20;59.60;;;;;;5052658;28;20502;-75
2022/07/24 00:27:40;;;;;;;11.68;10.25;;;30.40;59.30;;;;;;5052974;28;20029;-76
2022/07/24 00:30:06;;;;;;;12.20;10.90;;;30.40;59.00;;;;;;5053932;28;20114;-76
2022/07/24 00:32:33;;;;;;;13.50;11.15;;;30.30;59.30;;;;;;5054165;28;20044;-77
2022/07/24 00:34:59;;;;;;;13.05;10.90;;;30.40;59.00;;;;;;5052842;28;20029;-78
2022/07/24 00:37:25;;;;;;;12.95;10.48;;;30.30;58.50;;;;;;5053913;28;20411;-75
2022/07/24 00:39:50;;;;;;;11.77;10.57;;;30.40;58.60;;;;;;5052192;28;20091;-80
2022/07/24 00:42:16;;;;;;;13.73;10.48;;;30.50;58.50;;;;;;5052072;28;20032;-83
2022/07/24 00:44:42;;;;;;;11.95;10.70;;;30.50;58.10;;;;;;5053797;28;20040;-76
2022/07/24 00:47:07;;;;;;;15.63;10.20;;;30.70;58.00;;;;;;5052353;28;20024;-76
2022/07/24 00:49:33;;;;;;;12.85;10.18;;;30.80;57.90;;;;;;5052834;28;20025;-77
2022/07/24 00:51:59;;;;;;;10.90;9.77;;;30.90;57.40;;;;;;5053708;28;20025;-75
2022/07/24 00:54:24;;;;;;;12.77;9.88;;;30.80;57.70;;;;;;5052378;28;20047;-76
2022/07/24 00:56:52;;;;;;;12.80;10.60;;;30.90;57.60;;;;;;5052176;28;20134;-76
2022/07/24 00:59:19;;;;;;;11.30;9.90;;;31.00;57.50;;;;;;5052847;28;20056;-76
2022/07/24 01:01:45;;;;;;;11.27;9.82;;;31.00;57.10;;;;;;5052278;28;20029;-81
2022/07/24 01:04:12;;;;;;;11.73;9.90;;;31.00;57.00;;;;;;5053392;28;20025;-78
2022/07/24 01:06:43;;;;;;;10.65;9.43;;;30.90;57.20;;;;;;5052730;28;20017;-75
2022/07/24 01:09:10;;;;;;;13.63;9.88;;;30.80;57.60;;;;;;5052326;28;20021;-82
2022/07/24 01:11:38;;;;;;;13.50;9.77;;;30.80;57.70;;;;;;5052167;28;20025;-79
2022/07/24 01:14:04;;;;;;;14.48;11.38;;;30.80;57.70;;;;;;5053300;28;20031;-75
2022/07/24 01:16:30;;;;;;;12.52;9.90;;;30.80;57.40;;;;;;5053819;28;20471;-75
2022/07/24 01:18:55;;;;;;;13.25;9.40;;;30.50;57.70;;;;;;5053407;28;20148;-79
2022/07/24 01:21:21;;;;;;;10.77;9.52;;;30.60;58.30;;;;;;5056273;28;20120;-75
2022/07/24 01:23:47;;;;;;;12.82;9.60;;;30.70;57.60;;;;;;5057243;28;20017;-75
2022/07/24 01:26:12;;;;;;;13.68;9.77;;;30.70;57.60;;;;;;5058262;28;20108;-77
2022/07/24 01:28:38;;;;;;;12.27;9.32;;;30.60;57.50;;;;;;5058210;28;20029;-76
2022/07/24 01:31:04;;;;;;;11.50;9.35;;;30.40;58.00;;;;;;5058362;28;20048;-86
2022/07/24 01:33:30;;;;;;;11.80;9.50;;;30.30;58.20;;;;;;5058027;28;20029;-79
2022/07/24 01:35:56;;;;;;;11.15;8.90;;;30.30;58.30;;;;;;5056697;28;20113;-82
2022/07/24 01:38:21;;;;;;;12.25;9.15;;;30.40;57.80;;;;;;5057304;28;20411;-78
2022/07/24 01:40:47;;;;;;;11.00;8.80;;;30.60;57.90;;;;;;5058839;28;20514;-79
2022/07/24 01:43:13;;;;;;;11.18;9.52;;;30.50;57.70;;;;;;5057076;28;20546;-77
2022/07/24 01:45:39;;;;;;;13.23;9.00;;;30.40;57.80;;;;;;5057924;28;20032;-75
2022/07/24 01:48:05;;;;;;;14.02;9.05;;;30.50;57.80;;;;;;5055631;28;20028;-78
2022/07/24 01:50:31;;;;;;;11.82;8.80;;;30.60;57.70;;;;;;5057198;28;20433;-78
2022/07/24 01:52:57;;;;;;;12.13;8.90;;;30.80;57.40;;;;;;5055476;28;20388;-75
2022/07/24 01:55:23;;;;;;;10.38;8.65;;;30.80;56.80;;;;;;5057466;28;20023;-83
2022/07/24 01:57:49;;;;;;;12.35;8.98;;;30.80;56.80;;;;;;5057099;28;20033;-81
2022/07/24 02:00:16;;;;;;;10.80;9.20;;;30.70;57.00;;;;;;5056724;28;20029;-78
2022/07/24 02:02:43;;;;;;;12.77;8.98;;;30.70;57.20;;;;;;5056643;28;20021;-82
2022/07/24 02:05:12;;;;;;;12.73;8.90;;;30.70;57.30;;;;;;5057916;28;20025;-75
2022/07/24 02:07:42;;;;;;;10.07;8.88;;;30.60;57.60;;;;;;5056341;28;20025;-85
2022/07/24 02:10:10;;;;;;;10.17;8.10;;;30.70;57.60;;;;;;5056090;28;20028;-77
2022/07/24 02:12:36;;;;;;;13.27;9.02;;;30.60;58.20;;;;;;5057543;28;20078;-87
2022/07/24 02:15:03;;;;;;;14.25;9.00;;;30.60;58.00;;;;;;5056825;28;20033;-75
2022/07/24 02:17:29;;;;;;;13.70;9.07;;;30.60;58.00;;;;;;5054460;28;20025;-75
2022/07/24 02:19:54;;;;;;;12.27;8.95;;;30.80;57.70;;;;;;5054556;28;20021;-75
2022/07/24 02:22:20;;;;;;;9.13;8.23;;;30.90;57.30;;;;;;5055526;28;20036;-75
2022/07/24 02:24:46;;;;;;;12.02;8.25;;;31.10;57.00;;;;;;5055066;28;20033;-78
2022/07/24 02:27:12;;;;;;;9.65;8.50;;;31.30;56.30;;;;;;5055465;28;20051;-79
2022/07/24 02:29:39;;;;;;;10.10;8.48;;;31.50;56.00;;;;;;5054161;28;20021;-78
2022/07/24 02:32:05;;;;;;;10.00;8.57;;;31.80;55.20;;;;;;5054214;28;20476;-77
2022/07/24 02:34:31;;;;;;;11.80;8.32;;;31.80;55.00;;;;;;5056178;28;20044;-82
2022/07/24 02:36:57;;;;;;;11.55;8.60;;;32.00;54.80;;;;;;5055180;28;20468;-87
2022/07/24 02:39:22;;;;;;;10.93;8.77;;;32.00;54.60;;;;;;5055229;28;20040;-75
2022/07/24 02:41:48;;;;;;;8.85;7.95;;;32.00;54.50;;;;;;5056574;28;20025;-76
2022/07/24 02:44:16;;;;;;;12.95;9.25;;;31.80;55.00;;;;;;5055093;28;20373;-81
2022/07/24 02:46:41;;;;;;;13.23;8.60;;;31.80;55.00;;;;;;5055638;28;20028;-81
2022/07/24 02:49:07;;;;;;;10.13;8.80;;;31.90;55.00;;;;;;5054153;28;20037;-77
2022/07/24 02:51:33;;;;;;;11.02;8.70;;;31.90;54.60;;;;;;5053610;28;20027;-77
2022/07/24 02:53:58;;;;;;;10.32;9.07;;;31.90;54.30;;;;;;5053736;28;20027;-76
2022/07/24 02:56:24;;;;;;;10.75;8.40;;;31.90;54.50;;;;;;5055427;28;20094;-76
2022/07/24 02:58:50;;;;;;;10.65;8.60;;;31.80;54.60;;;;;;5054982;28;20091;-76
2022/07/24 03:01:15;;;;;;;9.95;8.02;;;31.80;54.90;;;;;;5054941;28;20414;-75
2022/07/24 03:03:41;;;;;;;12.18;8.57;;;31.60;55.20;;;;;;5053507;28;20507;-76
2022/07/24 03:06:07;;;;;;;10.98;8.90;;;31.50;55.10;;;;;;5055053;28;20021;-76
2022/07/24 03:08:33;;;;;;;14.68;8.80;;;31.50;55.10;;;;;;5054124;28;20058;-78
2022/07/24 03:10:58;;;;;;;9.73;8.27;;;31.50;54.70;;;;;;5053702;28;20029;-84
2022/07/24 03:13:24;;;;;;;9.57;8.57;;;31.70;54.80;;;;;;5053380;28;20040;-77
2022/07/24 03:15:50;;;;;;;9.77;8.60;;;31.80;54.80;;;;;;5054963;28;20103;-81
2022/07/24 03:18:15;;;;;;;10.75;8.48;;;31.80;54.40;;;;;;5053427;28;20125;-77
2022/07/24 03:20:41;;;;;;;10.13;8.93;;;31.90;54.40;;;;;;5054690;28;20056;-77
2022/07/24 03:23:07;;;;;;;11.48;8.55;;;31.70;54.90;;;;;;5053471;28;20029;-78
2022/07/24 03:25:32;;;;;;;9.75;8.25;;;31.70;54.60;;;;;;5055156;28;20029;-78
2022/07/24 03:27:58;;;;;;;14.25;9.02;;;31.70;54.50;;;;;;5054441;28;20476;-81
2022/07/24 03:30:24;;;;;;;10.45;8.27;;;31.50;54.40;;;;;;5054243;28;20116;-81
2022/07/24 03:32:49;;;;;;;10.63;8.32;;;31.70;54.80;;;;;;5053696;28;20057;-76
2022/07/24 03:35:15;;;;;;;10.80;8.15;;;31.90;54.50;;;;;;5054781;28;20541;-77
2022/07/24 03:37:41;;;;;;;10.25;7.93;;;31.90;54.60;;;;;;5054291;28;20025;-76
2022/07/24 03:40:08;;;;;;;9.80;8.35;;;31.80;54.40;;;;;;5054146;28;20086;-75
2022/07/24 03:42:34;;;;;;;10.10;7.68;;;31.80;55.00;;;;;;5053332;28;20025;-76
2022/07/24 03:45:00;;;;;;;11.38;7.88;;;31.80;54.30;;;;;;5053469;28;20029;-77
2022/07/24 03:47:26;;;;;;;10.60;8.10;;;31.70;54.80;;;;;;5054343;28;20466;-77
2022/07/24 03:49:52;;;;;;;9.93;8.10;;;31.50;54.80;;;;;;5054128;28;20032;-76
2022/07/24 03:52:18;;;;;;;13.40;8.20;;;31.50;54.90;;;;;;5053672;28;20017;-87
2022/07/24 03:54:43;;;;;;;11.10;8.48;;;31.50;54.70;;;;;;5052857;28;20025;-83
2022/07/24 03:57:09;;;;;;;9.30;8.27;;;31.60;54.80;;;;;;5054208;28;20043;-76
2022/07/24 03:59:35;;;;;;;11.23;8.10;;;31.60;54.80;;;;;;5053706;28;20041;-76
2022/07/24 04:02:01;;;;;;;9.32;8.13;;;31.50;55.10;;;;;;5054350;28;20435;-77
2022/07/24 04:04:26;;;;;;;10.73;8.30;;;31.40;55.00;;;;;;5053766;28;20025;-78
2022/07/24 04:06:52;;;;;;;10.77;8.50;;;31.50;55.40;;;;;;5052675;28;20450;-78
2022/07/24 04:09:18;;;;;;;9.57;7.72;;;31.40;55.80;;;;;;5052318;28;20353;-76
2022/07/24 04:11:45;;;;;;;15.45;8.05;;;31.40;55.60;;;;;;5053685;28;20024;-76
2022/07/24 04:14:11;;;;;;;11.13;7.90;;;31.50;55.50;;;;;;5053509;28;20032;-78
2022/07/24 04:16:37;;;;;;;11.32;7.75;;;31.40;56.20;;;;;;5053855;28;20021;-77
2022/07/24 04:19:04;;;;;;;9.70;7.93;;;31.50;55.20;;;;;;5053722;28;20044;-78
2022/07/24 04:21:30;;;;;;;9.98;8.10;;;31.50;55.20;;;;;;5053281;28;20025;-77
2022/07/24 04:23:55;;;;;;;9.50;8.05;;;31.60;55.30;;;;;;5053374;28;20025;-76
2022/07/24 04:26:21;;;;;;;9.85;7.90;;;31.60;55.10;;;;;;5052398;28;20472;-79
2022/07/24 04:28:47;;;;;;;11.32;7.95;;;31.50;55.10;;;;;;5053555;28;20032;-76
2022/07/24 04:31:13;;;;;;;10.20;7.90;;;31.60;55.30;;;;;;5053118;28;20036;-77
2022/07/24 04:33:38;;;;;;;8.75;7.70;;;31.50;55.30;;;;;;5053899;28;20110;-82
2022/07/24 04:36:05;;;;;;;10.05;8.65;;;31.30;55.40;;;;;;5053645;28;20025;-76
2022/07/24 04:38:35;;;;;;;11.07;8.38;;;31.20;55.70;;;;;;5052913;28;20032;-76
2022/07/24 04:41:01;;;;;;;12.23;8.45;;;31.20;55.60;;;;;;5053141;28;20123;-84
2022/07/24 04:43:27;;;;;;;12.65;8.63;;;31.30;55.50;;;;;;5052304;28;20029;-84
2022/07/24 04:45:53;;;;;;;12.63;8.82;;;31.30;55.70;;;;;;5051787;28;20028;-76
2022/07/24 04:48:19;;;;;;;9.95;8.13;;;31.50;55.80;;;;;;5053274;28;20460;-76
2022/07/24 04:50:44;;;;;;;9.15;8.23;;;31.50;55.60;;;;;;5052973;28;20021;-77
2022/07/24 04:53:10;;;;;;;14.48;8.90;;;31.60;55.50;;;;;;5051892;28;20033;-78
2022/07/24 04:55:36;;;;;;;9.43;8.40;;;31.70;55.30;;;;;;5053454;28;20385;-76
2022/07/24 04:58:01;;;;;;;11.48;8.40;;;31.50;55.30;;;;;;5051229;28;20076;-75
2022/07/24 05:00:27;;;;;;;11.20;8.52;;;31.40;55.70;;;;;;5051585;28;20064;-76
2022/07/24 05:02:53;;;;;;;11.82;8.68;;;31.50;55.90;;;;;;5051484;28;20112;-77
2022/07/24 05:05:19;;;;;;;10.18;8.63;;;31.50;56.00;;;;;;5051753;28;20025;-76
2022/07/24 05:07:44;;;;;;;10.95;8.40;;;31.60;55.40;;;;;;5051639;28;20094;-76
2022/07/24 05:10:10;;;;;;;11.48;8.38;;;31.80;56.00;;;;;;5052788;28;20036;-76
2022/07/24 05:12:36;;;;;;;15.15;8.75;;;32.10;55.50;;;;;;5053304;28;20525;-82
2022/07/24 05:15:04;;;;;;;12.75;8.73;;;32.00;55.50;;;;;;5052065;28;20079;-76
2022/07/24 05:17:30;;;;;;;10.43;9.05;;;32.00;55.20;;;;;;5051366;28;20027;-78
2022/07/24 05:19:55;;;;;;;11.00;8.82;;;32.00;55.20;;;;;;5051746;28;20028;-77
2022/07/24 05:22:21;;;;;;;12.10;9.15;;;31.90;55.50;;;;;;5053139;28;20033;-83
2022/07/24 05:24:47;;;;;;;11.23;9.35;;;31.80;55.70;;;;;;5052376;28;20047;-76
2022/07/24 05:27:13;;;;;;;11.63;9.57;;;31.80;55.90;;;;;;5053162;28;20025;-77
2022/07/24 05:29:39;;;;;;;11.02;8.95;;;31.80;56.10;;;;;;5053109;28;20059;-76
2022/07/24 05:32:05;;;;;;;12.88;8.82;;;32.00;56.20;;;;;;5052401;28;20052;-75
2022/07/24 05:34:31;;;;;;;12.35;9.38;;;32.20;56.10;;;;;;5051237;28;20029;-79
2022/07/24 05:36:57;;;;;;;10.38;9.27;;;32.20;56.00;;;;;;5051448;28;20036;-79
2022/07/24 05:39:23;;;;;;;10.85;9.70;;;32.30;56.50;;;;;;5051272;28;20040;-77
2022/07/24 05:41:48;;;;;;;12.50;9.65;;;32.30;55.90;;;;;;5052377;28;20025;-77
2022/07/24 05:44:14;;;;;;;13.02;9.35;;;32.20;56.10;;;;;;5051616;28;20434;-76
2022/07/24 05:46:40;;;;;;;15.40;9.95;;;32.20;56.30;;;;;;5052465;28;20108;-76
2022/07/24 05:49:05;;;;;;;10.90;9.23;;;32.30;55.70;;;;;;5051133;28;20029;-82
2022/07/24 05:51:31;;;;;;;11.52;9.68;;;32.50;56.20;;;;;;5051868;28;20074;-82
2022/07/24 05:53:57;;;;;;;11.57;9.68;;;32.40;55.80;;;;;;5051090;28;20468;-74
2022/07/24 05:56:22;;;;;;;11.25;9.50;;;32.30;56.20;;;;;;5052233;28;20100;-77
2022/07/24 05:58:48;;;;;;;11.13;9.82;;;32.30;56.50;;;;;;5051926;28;20049;-76
2022/07/24 06:01:14;;;;;;;13.98;9.60;;;32.20;56.40;;;;;;5051078;28;20061;-77
2022/07/24 06:03:39;;;;;;;11.43;10.20;;;32.20;56.20;;;;;;5052110;28;20021;-76
2022/07/24 06:06:05;;;;;;;12.93;10.27;;;32.20;56.40;;;;;;5054594;28;20381;-79
2022/07/24 06:08:31;;;;;;;12.80;10.30;;;32.20;56.20;;;;;;5056220;28;20425;-77
2022/07/24 06:10:57;;;;;;;11.32;10.15;;;32.30;56.10;;;;;;5054629;28;20122;-79
2022/07/24 06:13:22;;;;;;;12.95;10.30;;;32.50;56.10;;;;;;5056068;28;20396;-79
2022/07/24 06:15:48;;;;;;;11.90;10.27;;;32.60;56.30;;;;;;5054624;28;20060;-80
2022/07/24 06:18:14;;;;;;;12.13;10.40;;;32.60;56.10;;;;;;5055072;28;20041;-78
2022/07/24 06:20:40;;;;;;;13.20;10.68;;;32.60;56.10;;;;;;5056066;28;20029;-76
2022/07/24 06:23:06;;;;;;;13.02;10.43;;;32.80;56.40;;;;;;5056303;28;20055;-77
2022/07/24 06:25:31;;;;;;;12.38;10.13;;;32.80;56.30;;;;;;5054684;28;20017;-78
2022/07/24 06:27:57;;;;;;;13.15;10.45;;;32.90;56.30;;;;;;5055827;28;20025;-78
2022/07/24 06:30:27;;;;;;;12.57;10.40;;;32.80;55.80;;;;;;5054747;28;20036;-78
2022/07/24 06:32:56;;;;;;;13.85;10.88;;;32.90;56.10;;;;;;5054471;28;20055;-84
2022/07/24 06:35:24;;;;;;;15.70;11.02;;;33.10;56.10;;;;;;5053247;28;20037;-79
2022/07/24 06:37:50;;;;;;;13.70;11.32;;;32.90;55.40;;;;;;5054222;28;20024;-78
2022/07/24 06:40:17;;;;;;;13.05;10.82;;;32.90;55.90;;;;;;4353796;28;10000726;-78
2022/07/24 06:42:44;;;;;;;12.45;11.23;;;32.90;55.90;;;;;;5052128;28;20436;-79
2022/07/24 06:45:11;;;;;;;13.65;11.73;;;33.10;55.50;;;;;;5052203;28;20071;-78
2022/07/24 06:47:36;;;;;;;12.60;11.30;;;33.10;55.40;;;;;;5051165;28;20037;-78
2022/07/24 06:50:03;;;;;;;14.27;12.02;;;33.30;55.00;;;;;;5051720;28;20024;-79
2022/07/24 06:52:29;;;;;;;14.05;11.35;;;33.30;55.00;;;;;;5052746;28;20094;-85
2022/07/24 06:54:55;;;;;;;12.50;11.15;;;33.10;55.10;;;;;;5051743;28;20458;-79
2022/07/24 06:57:20;;;;;;;12.75;11.45;;;33.10;55.70;;;;;;5050683;28;20039;-78
2022/07/24 06:59:46;;;;;;;12.10;11.00;;;33.30;54.70;;;;;;5052588;28;20579;-82
2022/07/24 07:02:12;;;;;;;13.23;11.50;;;33.10;54.40;;;;;;5051137;28;20427;-80
2022/07/24 07:04:38;;;;;;;13.95;11.10;;;33.20;54.10;;;;;;5050466;28;20399;-80
2022/07/24 07:07:04;;;;;;;12.55;11.25;;;33.50;54.60;;;;;;5050965;28;20391;-87
2022/07/24 07:09:30;;;;;;;12.13;10.95;;;33.80;53.40;;;;;;5051675;28;20094;-82
2022/07/24 07:11:55;;;;;;;12.57;11.23;;;33.60;52.90;;;;;;5053229;28;20021;-80
2022/07/24 07:14:21;;;;;;;13.50;11.65;;;33.30;52.90;;;;;;5050274;28;20040;-86
2022/07/24 07:16:48;;;;;;;13.95;11.48;;;33.50;53.70;;;;;;5052456;28;20021;-79
2022/07/24 07:19:13;;;;;;;13.07;11.07;;;33.30;53.10;;;;;;5052343;28;20044;-83
2022/07/24 07:21:39;;;;;;;12.13;10.93;;;33.60;53.50;;;;;;5050947;28;20025;-82
2022/07/24 07:24:06;;;;;;;12.75;10.70;;;34.00;53.20;;;;;;5052783;28;20093;-81
2022/07/24 07:26:31;;;;;;;11.95;10.73;;;34.40;52.30;;;;;;5054980;28;20383;-80
2022/07/24 07:28:57;;;;;;;12.07;10.30;;;34.40;51.40;;;;;;5053017;28;20472;-81
2022/07/24 07:31:24;;;;;;;10.73;9.63;;;34.80;51.90;;;;;;5054725;28;20032;-85
2022/07/24 07:33:50;;;;;;;12.10;10.18;;;34.90;50.90;;;;;;5055234;28;20464;-81
2022/07/24 07:36:16;;;;;;;12.82;10.00;;;34.60;50.70;;;;;;5054750;28;20028;-80
2022/07/24 07:38:42;;;;;;;11.68;9.32;;;34.70;50.00;;;;;;5053414;28;20033;-82
2022/07/24 07:41:08;;;;;;;10.38;9.25;;;34.90;49.40;;;;;;5054946;28;20415;-79
2022/07/24 07:43:34;;;;;;;13.70;9.48;;;35.10;49.70;;;;;;5054103;28;20021;-85
2022/07/24 07:45:59;;;;;;;11.50;8.95;;;35.20;49.20;;;;;;5053642;28;20033;-78
2022/07/24 07:48:25;;;;;;;10.23;9.13;;;35.00;49.00;;;;;;5054937;28;20050;-83
2022/07/24 07:50:50;;;;;;;9.57;8.65;;;34.60;49.00;;;;;;5054092;28;20047;-82
2022/07/24 07:53:16;;;;;;;9.35;8.43;;;34.70;49.70;;;;;;5054334;28;20388;-80
2022/07/24 07:55:42;;;;;;;9.98;8.63;;;34.70;48.20;;;;;;5053368;28;20476;-79
2022/07/24 07:58:09;;;;;;;10.93;8.52;;;34.50;48.50;;;;;;5053673;28;20419;-86
2022/07/24 08:00:38;;;;;;;9.65;8.57;;;34.40;48.70;;;;;;4704351;28;10000581;-90
2022/07/24 08:03:04;;;;;;;10.30;8.23;;;34.30;48.10;;;;;;5035380;28;20036;-84
2022/07/24 08:05:30;;;;;;;9.43;7.70;;;34.60;48.20;;;;;;5050773;28;20041;-78
2022/07/24 08:07:56;;;;;;;9.75;8.50;;;34.70;47.90;;;;;;5051032;28;20395;-80
2022/07/24 08:10:22;;;;;;;10.07;8.30;;;34.40;48.20;;;;;;5050794;28;20027;-84
2022/07/24 08:12:48;;;;;;;10.23;8.55;;;34.10;48.20;;;;;;5050886;28;20381;-89
2022/07/24 08:15:13;;;;;;;11.45;8.85;;;34.20;48.10;;;;;;5050482;28;20039;-84
2022/07/24 08:17:39;;;;;;;9.32;8.32;;;34.30;46.90;;;;;;5050609;28;20187;-78
2022/07/24 08:20:05;;;;;;;10.65;8.93;;;34.00;47.60;;;;;;5051242;28;20044;-80
2022/07/24 08:22:31;;;;;;;9.25;7.90;;;34.00;46.90;;;;;;5052064;28;20025;-82
2022/07/24 08:24:56;;;;;;;10.02;8.85;;;34.40;48.40;;;;;;5052110;28;20032;-82
2022/07/24 08:27:22;;;;;;;10.30;9.10;;;34.70;47.20;;;;;;5050342;28;20021;-79
2022/07/24 08:29:48;;;;;;;10.60;9.43;;;34.70;47.70;;;;;;5050812;28;20032;-80
2022/07/24 08:32:14;;;;;;;9.70;8.70;;;34.70;47.40;;;;;;5050778;28;20032;-80
2022/07/24 08:34:40;;;;;;;10.75;9.32;;;35.20;47.60;;;;;;5050979;28;20021;-88
2022/07/24 08:37:05;;;;;;;9.82;8.75;;;35.50;47.70;;;;;;5050067;28;20442;-81
2022/07/24 08:39:31;;;;;;;10.85;8.55;;;35.50;46.10;;;;;;5050969;28;20542;-77
2022/07/24 08:41:57;;;;;;;10.57;8.25;;;35.20;46.60;;;;;;5051897;28;20032;-82
2022/07/24 08:44:23;;;;;;;9.40;8.27;;;35.20;46.20;;;;;;5050960;28;20025;-80
2022/07/24 08:46:50;;;;;;;9.38;7.95;;;35.30;46.20;;;;;;5051834;28;20369;-82
2022/07/24 08:49:18;;;;;;;9.20;8.25;;;35.00;45.90;;;;;;5049978;28;20048;-78
2022/07/24 08:51:44;;;;;;;10.25;8.10;;;34.90;47.10;;;;;;5051035;28;20049;-82
2022/07/24 08:54:10;;;;;;;10.55;8.60;;;34.90;45.90;;;;;;5053240;28;20491;-81
2022/07/24 08:56:42;;;;;;;11.23;8.88;;;34.70;46.90;;;;;;5052827;28;20029;-83
2022/07/24 08:59:17;;;;;;;9.02;8.13;;;34.50;46.40;;;;;;5051049;28;20475;-80
2022/07/24 09:01:43;;;;;;;9.55;8.60;;;34.50;47.50;;;;;;5052665;28;20021;-82
2022/07/24 09:04:34;;;;;;;10.30;8.65;;;34.70;47.00;;;;;;5051820;28;20032;-87
2022/07/24 09:07:03;;;;;;;9.77;8.75;;;35.00;46.90;;;;;;5052490;28;20029;-84
2022/07/24 09:09:29;;;;;;;10.73;8.43;;;35.20;46.80;;;;;;5052505;28;20025;-85
2022/07/24 09:12:15;;;;;;;9.75;8.00;;;35.60;47.50;;;;;;5052536;28;20051;-88
2022/07/24 09:14:46;;;;;;;11.25;8.05;;;36.00;45.80;;;;;;5053213;28;20033;-79
2022/07/24 09:17:17;;;;;;;9.32;7.80;;;35.60;45.20;;;;;;5052277;28;20021;-85
2022/07/24 09:19:58;;;;;;;9.18;8.27;;;35.40;45.80;;;;;;5053201;28;20037;-79
2022/07/24 09:22:27;;;;;;;10.18;9.10;;;35.40;46.10;;;;;;5054203;28;20028;-86
2022/07/24 09:25:21;;;;;;;8.38;7.43;;;35.40;46.20;;;;;;5050512;28;20021;-81
2022/07/24 09:27:53;;;;;;;8.73;7.72;;;34.90;45.50;;;;;;5051078;28;20029;-85
2022/07/24 09:30:27;;;;;;;12.70;11.50;;;34.70;45.10;;;;;;5053399;28;20026;-88
2022/07/24 09:32:55;;;;;;;8.43;7.53;;;34.80;46.00;;;;;;5053274;28;20100;-84
2022/07/24 09:35:45;;;;;;;8.80;7.30;;;34.90;46.00;;;;;;5051589;28;20040;-79
2022/07/24 09:38:14;;;;;;;11.40;7.30;;;35.10;44.30;;;;;;5051458;28;20045;-79
2022/07/24 09:40:46;;;;;;;10.55;7.40;;;35.50;44.80;;;;;;5053430;28;20071;-86
2022/07/24 09:43:26;;;;;;;7.82;6.75;;;35.70;44.50;;;;;;5056871;28;20013;-90
2022/07/24 09:46:01;;;;;;;;;;;35.90;44.50;;;;;;5050367;28;20384;-81
2022/07/24 09:48:29;;;;;;;8.50;7.60;;;35.90;44.70;;;;;;5036761;28;19909;-77
2022/07/24 09:50:59;;;;;;;7.53;6.73;;;35.70;43.50;;;;;;5055071;28;20021;-81
2022/07/24 09:53:27;;;;;;;9.85;6.90;;;34.90;43.50;;;;;;5055854;28;20025;-77
2022/07/24 09:56:06;;;;;;;8.75;7.28;;;34.90;44.10;;;;;;5055728;28;20100;-78
2022/07/24 09:58:34;;;;;;;8.88;7.53;;;35.20;44.70;;;;;;5055812;28;20098;-77
2022/07/24 10:01:01;;;;;;;9.32;7.72;;;35.10;44.90;;;;;;4711883;28;10000573;-81
2022/07/24 10:03:32;;;;;;;9.82;6.60;;;35.20;44.30;;;;;;5055088;28;20032;-84
2022/07/24 10:06:04;;;;;;;8.43;6.65;;;35.00;43.90;;;;;;5053957;28;20609;-82
2022/07/24 10:08:32;;;;;;;7.88;7.07;;;34.80;43.00;;;;;;5037218;28;20075;-84
2022/07/24 10:10:58;;;;;;;8.13;7.32;;;34.80;43.80;;;;;;5052733;28;20028;-76
2022/07/24 10:13:25;;;;;;;9.57;8.05;;;35.20;44.10;;;;;;5053689;28;20107;-80
2022/07/24 10:16:04;;;;;;;8.00;7.20;;;35.50;44.50;;;;;;5054763;28;20032;-81
2022/07/24 10:18:48;;;;;;;9.93;8.60;;;35.60;44.80;;;;;;5053324;28;20071;-80
2022/07/24 10:21:20;;;;;;;10.13;8.50;;;35.80;45.90;;;;;;5055634;28;20116;-79
2022/07/24 10:24:06;;;;;;;8.93;8.02;;;35.90;45.70;;;;;;5056823;28;20060;-79
2022/07/24 10:26:37;;;;;;;13.05;8.60;;;35.60;45.00;;;;;;5055842;28;20028;-81
2022/07/24 10:29:18;;;;;;;8.48;7.53;;;35.10;45.00;;;;;;5054126;28;20053;-78
2022/07/24 10:31:54;;;;;;;10.77;8.65;;;35.10;43.80;;;;;;5056346;28;20513;-77
2022/07/24 10:34:36;;;;;;;8.15;6.47;;;35.40;43.80;;;;;;5056484;28;20040;-78
2022/07/24 10:37:39;;;;;;;11.43;9.18;;;35.60;43.20;;;;;;5054852;28;20033;-86
2022/07/24 10:40:57;;;;;;;9.85;6.82;;;35.40;43.00;;;;;;5056845;28;20040;-76
2022/07/24 10:43:23;;;;;;;8.98;6.68;;;35.30;43.40;;;;;;5015085;28;20075;-87
2022/07/24 10:45:49;;;;;;;12.95;6.35;;;35.70;43.10;;;;;;4996252;28;20060;-83
2022/07/24 10:48:20;;;;;;;11.20;6.22;;;36.20;43.00;;;;;;5014441;28;20080;-85
2022/07/24 10:51:07;;;;;;;8.13;6.13;;;36.60;43.20;;;;;;5014448;28;20038;-81
2022/07/24 10:53:36;;;;;;;8.13;6.45;;;36.80;41.70;;;;;;5015006;28;20056;-79
2022/07/24 10:56:28;;;;;;;6.30;5.30;;;37.10;41.10;;;;;;5013536;28;20469;-81
2022/07/24 10:59:03;;;;;;;8.13;5.93;;;37.10;41.00;;;;;;5013371;28;20060;-93
2022/07/24 11:01:38;;;;;;;6.95;5.93;;;36.70;41.40;;;;;;5014524;28;20030;-89
2022/07/24 11:04:25;;;;;;;8.75;6.30;;;36.70;42.10;;;;;;4996523;28;20458;-86
2022/07/24 11:07:14;;;;;;;6.82;5.55;;;36.80;41.60;;;;;;5013802;28;20385;-80
2022/07/24 11:10:07;;;;;;;6.88;5.85;;;37.00;40.60;;;;;;4997345;28;20110;-81
2022/07/24 11:12:42;;;;;;;8.15;6.30;;;36.90;40.60;;;;;;5012841;28;20100;-82
2022/07/24 11:17:52;;;;;;;6.65;5.47;;;36.10;40.70;;;;;;5015974;28;20045;-83
2022/07/24 11:20:21;;;;;;;7.00;5.93;;;36.60;40.00;;;;;;5054082;28;20037;-81
2022/07/24 11:22:49;;;;;;;6.25;5.22;;;36.80;40.10;;;;;;5053939;28;20056;-78
2022/07/24 11:25:20;;;;;;;10.10;5.82;;;36.60;39.60;;;;;;5055983;28;20028;-81
2022/07/24 11:27:49;;;;;;;6.10;5.50;;;36.80;40.40;;;;;;5055150;28;20025;-90
2022/07/24 11:30:16;;;;;;;6.93;5.40;;;36.80;40.20;;;;;;5053955;28;20574;-80
2022/07/24 11:32:43;;;;;;;6.93;5.30;;;36.90;39.90;;;;;;5053780;28;20074;-79
2022/07/24 11:35:09;;;;;;;6.50;4.30;;;36.80;38.70;;;;;;5054698;28;20024;-77
2022/07/24 11:37:37;;;;;;;6.00;5.20;;;36.60;36.60;;;;;;5054124;28;20052;-80
2022/07/24 11:40:05;;;;;;;7.30;4.78;;;36.40;37.30;;;;;;5053509;28;20036;-78
2022/07/24 11:42:31;;;;;;;5.57;4.93;;;36.10;37.70;;;;;;5055232;28;20021;-82
2022/07/24 11:44:57;;;;;;;6.47;5.07;;;35.90;38.30;;;;;;5053408;28;20037;-79
2022/07/24 11:47:26;;;;;;;6.35;4.80;;;36.10;37.70;;;;;;5054765;28;20104;-86
2022/07/24 11:49:55;;;;;;;5.40;4.50;;;36.30;38.20;;;;;;5053764;28;20435;-78
2022/07/24 11:52:41;;;;;;;5.38;4.78;;;36.30;39.60;;;;;;5055346;28;20021;-87
2022/07/24 11:55:11;;;;;;;9.98;5.30;;;36.50;38.70;;;;;;5055062;28;20079;-77
2022/07/24 11:57:39;;;;;;;6.15;4.80;;;36.60;38.90;;;;;;5054340;28;20428;-78
2022/07/24 12:00:09;;;;;;;6.40;5.00;;;36.50;37.80;;;;;;5053656;28;20053;-78
2022/07/24 12:02:35;;;;;;;9.00;5.03;;;36.60;38.80;;;;;;5053588;28;20100;-81
2022/07/24 12:05:01;;;;;;;7.18;4.90;;;36.90;38.60;;;;;;5053807;28;20112;-82
2022/07/24 12:07:26;;;;;;;7.30;5.00;;;37.20;37.80;;;;;;5053657;28;20017;-89
2022/07/24 12:09:54;;;;;;;6.72;5.03;;;37.00;39.10;;;;;;4352967;28;10000948;-87
2022/07/24 12:12:48;;;;;;;6.70;4.93;;;36.60;38.70;;;;;;5051212;28;20273;-87
2022/07/24 12:15:14;;;;;;;5.43;4.80;;;36.60;38.90;;;;;;5053437;28;20441;-83
2022/07/24 12:18:03;;;;;;;7.60;5.18;;;36.80;39.30;;;;;;5053855;28;20029;-84
2022/07/24 12:20:43;;;;;;;5.70;5.05;;;36.80;38.80;;;;;;5053890;28;20037;-86
2022/07/24 12:23:14;;;;;;;6.30;4.97;;;36.80;39.50;;;;;;5053598;28;20024;-80
2022/07/24 12:25:41;;;;;;;7.75;5.45;;;37.00;39.40;;;;;;5053527;28;20199;-89
2022/07/24 12:28:08;;;;;;;7.25;4.90;;;37.10;39.40;;;;;;5054706;28;20074;-86
2022/07/24 12:30:37;;;;;;;8.27;5.57;;;37.20;39.90;;;;;;5053596;28;20029;-80
2022/07/24 12:33:26;;;;;;;6.43;4.93;;;36.70;38.40;;;;;;5053551;28;20021;-89
2022/07/24 12:35:56;;;;;;;7.53;5.00;;;36.90;40.90;;;;;;5054005;28;20086;-87
2022/07/24 12:38:25;;;;;;;6.95;5.00;;;37.00;38.80;;;;;;5053770;28;20360;-84
2022/07/24 12:40:51;;;;;;;6.85;4.90;;;37.00;39.40;;;;;;5053415;28;20116;-78
2022/07/24 12:43:16;;;;;;;7.20;4.85;;;36.70;39.70;;;;;;5053080;28;20032;-80
2022/07/24 12:45:42;;;;;;;6.80;4.82;;;36.60;39.60;;;;;;5054333;28;20100;-89